Time;durP1;ratioP1;P1;durP2;ratioP2;P2;SDS_P1;SDS_P2;PMS_P1;PMS_P2;Temp;Humidity;BMP_temperature;BMP_pressure;BME280_temperature;BME280_humidity;BME280_pressure;Samples;Min_cycle;Max_cycle;Signal;HPM_P1;HPM_P2
2023/05/23 00:01:57;;;;;;;19.17;10.98;;;13.00;99.90;;;;;;4995320;28;20037;-63
2023/05/23 00:04:25;;;;;;;15.35;10.68;;;12.80;99.90;;;;;;4995229;28;20030;-63
2023/05/23 00:06:52;;;;;;;12.75;10.80;;;12.80;99.90;;;;;;4995450;28;20041;-63
2023/05/23 00:09:18;;;;;;;14.75;10.98;;;12.70;99.90;;;;;;4977688;28;20041;-63
2023/05/23 00:11:44;;;;;;;17.67;11.15;;;12.60;99.90;;;;;;4995224;28;20117;-63
2023/05/23 00:14:15;;;;;;;15.40;11.38;;;12.50;99.90;;;;;;4995126;28;20108;-63
2023/05/23 00:16:43;;;;;;;20.80;10.95;;;12.50;99.90;;;;;;4995164;28;20164;-63
2023/05/23 00:19:15;;;;;;;17.55;12.40;;;12.50;99.90;;;;;;4995216;28;20038;-62
2023/05/23 00:21:47;;;;;;;23.17;11.57;;;12.50;99.90;;;;;;4995090;28;20027;-63
2023/05/23 00:24:17;;;;;;;17.25;11.90;;;12.50;99.90;;;;;;4994991;28;20459;-63
2023/05/23 00:26:44;;;;;;;17.17;11.03;;;12.60;99.90;;;;;;4995126;28;20046;-63
2023/05/23 00:29:15;;;;;;;16.02;11.00;;;12.60;99.90;;;;;;4994996;28;20026;-63
2023/05/23 00:31:45;;;;;;;15.75;11.40;;;12.70;99.90;;;;;;4995178;28;20073;-62
2023/05/23 00:34:16;;;;;;;14.57;11.40;;;12.70;99.90;;;;;;4994961;28;20046;-63
2023/05/23 00:36:43;;;;;;;15.95;11.57;;;12.60;99.90;;;;;;4995072;28;20070;-63
2023/05/23 00:39:17;;;;;;;18.08;12.00;;;12.40;99.90;;;;;;4995110;28;20117;-62
2023/05/23 00:41:50;;;;;;;17.10;10.80;;;12.40;99.90;;;;;;4994790;28;20041;-63
2023/05/23 00:44:18;;;;;;;17.00;11.75;;;12.30;99.90;;;;;;4994972;28;20326;-63
2023/05/23 00:46:46;;;;;;;15.73;11.70;;;12.30;99.90;;;;;;4994850;28;20033;-63
2023/05/23 00:49:13;;;;;;;17.13;11.23;;;12.20;99.90;;;;;;4994880;28;20030;-63
2023/05/23 00:51:41;;;;;;;18.02;10.50;;;12.10;99.90;;;;;;4994981;28;20054;-63
2023/05/23 00:54:08;;;;;;;18.75;10.98;;;12.10;99.90;;;;;;4994996;28;20050;-63
2023/05/23 00:56:35;;;;;;;19.40;9.88;;;12.10;99.90;;;;;;4994889;28;20376;-63
2023/05/23 00:59:01;;;;;;;16.00;10.63;;;12.10;99.90;;;;;;4977261;28;20072;-63
2023/05/23 01:01:27;;;;;;;15.75;10.43;;;12.10;99.90;;;;;;4994741;28;20101;-63
2023/05/23 01:03:53;;;;;;;15.18;11.15;;;12.00;99.90;;;;;;4994903;28;20026;-62
2023/05/23 01:06:20;;;;;;;17.23;11.20;;;12.00;99.90;;;;;;4994789;28;20026;-62
2023/05/23 01:08:46;;;;;;;23.88;10.43;;;11.90;99.90;;;;;;4976994;28;20034;-62
2023/05/23 01:11:25;;;;;;;15.05;10.73;;;11.90;99.90;;;;;;4996172;28;20037;-63
2023/05/23 01:13:59;;;;;;;18.75;10.57;;;11.80;99.90;;;;;;4981001;28;20035;-62
2023/05/23 01:16:37;;;;;;;16.48;10.85;;;11.90;99.90;;;;;;4998475;28;20069;-62
2023/05/23 01:19:28;;;;;;;17.08;10.43;;;11.80;99.90;;;;;;4998463;28;20473;-62
2023/05/23 01:21:57;;;;;;;13.07;10.00;;;11.80;99.90;;;;;;4998407;28;20039;-62
2023/05/23 01:25:09;;;;;;;20.13;9.95;;;11.80;99.90;;;;;;4980844;28;20042;-63
2023/05/23 01:27:53;;;;;;;18.90;9.90;;;11.80;99.90;;;;;;4998066;28;20045;-62
2023/05/23 01:30:20;;;;;;;15.10;10.05;;;11.70;99.90;;;;;;4998110;28;20030;-62
2023/05/23 01:32:49;;;;;;;14.68;10.15;;;11.70;99.90;;;;;;4998097;28;20105;-62
2023/05/23 01:35:23;;;;;;;12.27;9.63;;;11.70;99.90;;;;;;4998111;28;20034;-63
2023/05/23 01:37:49;;;;;;;13.38;9.85;;;11.60;99.90;;;;;;4997990;28;20030;-62
2023/05/23 01:40:15;;;;;;;12.73;9.98;;;11.60;99.90;;;;;;4997963;28;20022;-63
2023/05/23 01:42:41;;;;;;;15.00;9.43;;;11.50;99.90;;;;;;4997886;28;20078;-63
2023/05/23 01:45:08;;;;;;;15.95;9.60;;;11.60;99.90;;;;;;4997712;28;20076;-63
2023/05/23 01:47:35;;;;;;;17.90;10.60;;;11.70;99.90;;;;;;4997835;28;20069;-62
2023/05/23 01:50:02;;;;;;;18.65;10.55;;;11.60;99.90;;;;;;4980355;28;20022;-62
2023/05/23 01:52:29;;;;;;;13.85;10.38;;;11.60;99.90;;;;;;4980256;28;20488;-62
2023/05/23 01:54:55;;;;;;;14.68;10.50;;;11.60;99.90;;;;;;4997763;28;20435;-62
2023/05/23 01:57:23;;;;;;;14.45;9.60;;;11.60;99.90;;;;;;4997632;28;20488;-62
2023/05/23 01:59:49;;;;;;;13.93;9.70;;;11.60;99.90;;;;;;4980093;28;20428;-62
2023/05/23 02:02:16;;;;;;;13.75;10.20;;;11.60;99.90;;;;;;4980251;28;20026;-62
2023/05/23 02:04:42;;;;;;;14.77;9.80;;;11.60;99.90;;;;;;4980178;28;20026;-62
2023/05/23 02:07:07;;;;;;;13.07;9.30;;;11.50;99.90;;;;;;4997520;28;20357;-62
2023/05/23 02:09:33;;;;;;;13.48;9.90;;;11.30;99.90;;;;;;4979804;28;20049;-62
2023/05/23 02:12:00;;;;;;;13.07;10.00;;;11.30;99.90;;;;;;4997660;28;20038;-62
2023/05/23 02:14:27;;;;;;;14.75;9.65;;;11.30;99.90;;;;;;4979960;28;20033;-62
2023/05/23 02:16:53;;;;;;;20.05;9.98;;;11.40;99.90;;;;;;4997331;28;20038;-62
2023/05/23 02:19:19;;;;;;;17.52;10.02;;;11.50;99.90;;;;;;4979758;28;20046;-62
2023/05/23 02:21:45;;;;;;;17.73;10.60;;;11.40;99.90;;;;;;4997185;28;20089;-62
2023/05/23 02:24:11;;;;;;;13.38;9.43;;;11.40;99.90;;;;;;4997252;28;20030;-62
2023/05/23 02:26:37;;;;;;;15.23;9.82;;;11.40;99.90;;;;;;4997059;28;20038;-62
2023/05/23 02:29:03;;;;;;;15.02;10.45;;;11.30;99.90;;;;;;4979509;28;20069;-62
2023/05/23 02:31:30;;;;;;;18.98;10.95;;;11.30;99.90;;;;;;4997237;28;20030;-62
2023/05/23 02:33:56;;;;;;;15.82;9.85;;;11.30;99.90;;;;;;4997022;28;20014;-63
2023/05/23 02:36:22;;;;;;;14.15;10.00;;;11.30;99.90;;;;;;4979460;28;20027;-62
2023/05/23 02:38:48;;;;;;;13.60;9.32;;;11.30;99.90;;;;;;4997015;28;20057;-62
2023/05/23 02:41:14;;;;;;;16.48;9.35;;;11.30;99.90;;;;;;4979376;28;20388;-62
2023/05/23 02:43:40;;;;;;;13.25;8.98;;;11.40;99.90;;;;;;4979247;28;20050;-62
2023/05/23 02:46:06;;;;;;;12.70;8.82;;;11.40;99.90;;;;;;4996714;28;20102;-62
2023/05/23 02:48:32;;;;;;;12.20;8.93;;;11.30;99.90;;;;;;4979167;28;20027;-62
2023/05/23 02:50:58;;;;;;;14.48;10.32;;;11.30;99.90;;;;;;4979259;28;20476;-63
2023/05/23 02:53:24;;;;;;;16.05;9.95;;;11.40;99.90;;;;;;4996683;28;20022;-62
2023/05/23 02:55:50;;;;;;;15.75;9.95;;;11.40;99.90;;;;;;4979044;28;20034;-62
2023/05/23 02:58:16;;;;;;;14.80;10.48;;;11.40;99.90;;;;;;4979256;28;20101;-62
2023/05/23 03:00:42;;;;;;;13.35;9.52;;;11.30;99.90;;;;;;4979075;28;20476;-62
2023/05/23 03:03:08;;;;;;;14.48;10.00;;;11.30;99.90;;;;;;4996521;28;20033;-62
2023/05/23 03:05:35;;;;;;;12.48;9.65;;;11.30;99.90;;;;;;4996396;28;20420;-62
2023/05/23 03:08:01;;;;;;;14.55;9.35;;;11.40;99.90;;;;;;4979065;28;20042;-62
2023/05/23 03:10:27;;;;;;;11.73;9.18;;;11.30;99.90;;;;;;4978530;28;20039;-62
2023/05/23 03:12:54;;;;;;;13.48;8.90;;;11.30;99.90;;;;;;4978956;28;20388;-62
2023/05/23 03:15:20;;;;;;;13.75;8.48;;;11.30;99.90;;;;;;4996350;28;20032;-62
2023/05/23 03:17:46;;;;;;;14.93;9.27;;;11.30;99.90;;;;;;4978611;28;20129;-63
2023/05/23 03:20:15;;;;;;;11.65;9.02;;;11.30;99.90;;;;;;4978719;28;20026;-62
2023/05/23 03:22:42;;;;;;;17.58;9.93;;;11.20;99.90;;;;;;4978729;28;20102;-62
2023/05/23 03:25:08;;;;;;;16.17;9.60;;;11.20;99.90;;;;;;4978481;28;20484;-62
2023/05/23 03:27:34;;;;;;;14.70;9.48;;;11.20;99.90;;;;;;4995917;28;20030;-62
2023/05/23 03:30:01;;;;;;;12.75;9.25;;;11.20;99.90;;;;;;4978546;28;20039;-62
2023/05/23 03:32:27;;;;;;;14.85;8.88;;;11.20;99.90;;;;;;4995999;28;20049;-62
2023/05/23 03:34:53;;;;;;;13.77;9.25;;;11.20;99.90;;;;;;4977881;28;20121;-62
2023/05/23 03:37:19;;;;;;;16.05;9.13;;;11.20;99.90;;;;;;4978314;28;20037;-62
2023/05/23 03:39:45;;;;;;;13.32;9.30;;;11.20;99.90;;;;;;4995715;28;20053;-62
2023/05/23 03:42:11;;;;;;;17.20;9.80;;;11.20;99.90;;;;;;4995663;28;20396;-62
2023/05/23 03:44:37;;;;;;;13.90;9.68;;;11.30;99.90;;;;;;4995613;28;20161;-62
2023/05/23 03:47:05;;;;;;;13.88;9.30;;;11.20;99.90;;;;;;4978105;28;20479;-62
2023/05/23 03:49:34;;;;;;;14.90;9.60;;;11.20;99.90;;;;;;4978094;28;20128;-62
2023/05/23 03:52:00;;;;;;;21.13;9.50;;;11.20;99.90;;;;;;4978081;28;20030;-62
2023/05/23 03:54:27;;;;;;;15.20;10.10;;;11.20;99.90;;;;;;4978045;28;20396;-62
2023/05/23 03:56:53;;;;;;;18.15;10.93;;;11.30;99.90;;;;;;4995531;28;20026;-62
2023/05/23 03:59:19;;;;;;;14.98;9.80;;;11.40;99.90;;;;;;4977868;28;20038;-62
2023/05/23 04:01:45;;;;;;;15.68;10.02;;;11.50;99.90;;;;;;4978021;28;20041;-62
2023/05/23 04:04:11;;;;;;;15.65;11.05;;;11.50;99.90;;;;;;4978087;28;20089;-62
2023/05/23 04:06:38;;;;;;;23.33;11.15;;;11.50;99.90;;;;;;4977848;28;20034;-63
2023/05/23 04:09:05;;;;;;;18.10;11.88;;;11.60;99.90;;;;;;4995102;28;20034;-62
2023/05/23 04:11:34;;;;;;;19.52;12.27;;;11.60;99.90;;;;;;4977735;28;20030;-62
2023/05/23 04:14:00;;;;;;;16.73;11.65;;;11.70;99.90;;;;;;4977720;28;20034;-62
2023/05/23 04:16:27;;;;;;;22.02;12.13;;;11.80;99.90;;;;;;4977639;28;20026;-62
2023/05/23 04:18:53;;;;;;;24.42;11.30;;;11.80;99.90;;;;;;4977778;28;20030;-62
2023/05/23 04:21:19;;;;;;;20.05;11.68;;;11.90;99.90;;;;;;4977373;28;20042;-62
2023/05/23 04:24:02;;;;;;;16.40;11.45;;;11.90;99.90;;;;;;4977578;28;20084;-62
2023/05/23 04:26:28;;;;;;;29.33;12.05;;;12.00;99.90;;;;;;4977697;28;20076;-62
2023/05/23 04:28:54;;;;;;;26.02;13.45;;;12.00;99.90;;;;;;4977371;28;20042;-62
2023/05/23 04:31:21;;;;;;;24.15;12.38;;;12.10;99.90;;;;;;4977662;28;20037;-62
2023/05/23 04:33:48;;;;;;;19.58;11.20;;;12.30;99.90;;;;;;4977491;28;20026;-62
2023/05/23 04:36:15;;;;;;;27.83;13.05;;;12.40;99.90;;;;;;4977551;28;20065;-63
2023/05/23 04:38:46;;;;;;;35.28;13.32;;;12.60;99.90;;;;;;4977492;28;20041;-62
2023/05/23 04:41:15;;;;;;;32.58;13.75;;;12.60;99.90;;;;;;4995123;28;20034;-62
2023/05/23 04:43:53;;;;;;;29.17;12.57;;;12.70;99.90;;;;;;4994762;28;20130;-62
2023/05/23 04:46:29;;;;;;;23.55;12.25;;;12.70;99.90;;;;;;4979263;28;20034;-63
2023/05/23 04:49:22;;;;;;;20.70;12.68;;;12.80;99.90;;;;;;4996583;28;20030;-62
2023/05/23 04:51:48;;;;;;;26.73;12.90;;;12.90;99.90;;;;;;4981295;28;20030;-63
2023/05/23 04:54:25;;;;;;;17.80;11.23;;;13.00;99.90;;;;;;4981223;28;20033;-62
2023/05/23 04:56:52;;;;;;;19.27;10.88;;;13.10;99.90;;;;;;4981134;28;20038;-62
2023/05/23 04:59:20;;;;;;;17.35;11.30;;;13.10;99.90;;;;;;4981135;28;20107;-62
2023/05/23 05:01:46;;;;;;;22.35;10.30;;;13.20;99.90;;;;;;4999169;28;20101;-62
2023/05/23 05:04:13;;;;;;;19.90;11.23;;;13.30;99.90;;;;;;4980937;28;20034;-62
2023/05/23 05:06:40;;;;;;;28.17;11.95;;;13.30;99.90;;;;;;4998798;28;20093;-62
2023/05/23 05:09:07;;;;;;;28.27;13.13;;;13.20;99.90;;;;;;4980789;28;20030;-63
2023/05/23 05:11:34;;;;;;;28.20;12.18;;;13.30;99.90;;;;;;4980829;28;20026;-63
2023/05/23 05:14:01;;;;;;;32.05;13.95;;;13.30;99.90;;;;;;4981484;28;20030;-62
2023/05/23 05:16:27;;;;;;;26.00;13.50;;;13.40;99.90;;;;;;4999142;28;20033;-62
2023/05/23 05:18:53;;;;;;;24.17;12.88;;;13.60;99.90;;;;;;4998156;28;20484;-63
2023/05/23 05:21:20;;;;;;;29.67;14.10;;;13.60;99.90;;;;;;4980748;28;20518;-62
2023/05/23 05:23:46;;;;;;;35.10;21.00;;;13.80;99.90;;;;;;4998230;28;20033;-63
2023/05/23 05:26:15;;;;;;;29.15;15.20;;;14.00;99.90;;;;;;4979958;28;20034;-62
2023/05/23 05:28:41;;;;;;;28.13;14.20;;;14.10;99.90;;;;;;4981328;28;20181;-62
2023/05/23 05:31:08;;;;;;;24.85;13.00;;;14.30;99.90;;;;;;4998645;28;20062;-62
2023/05/23 05:33:36;;;;;;;26.83;14.18;;;14.50;99.90;;;;;;4980581;28;20034;-62
2023/05/23 05:36:11;;;;;;;36.33;13.15;;;14.60;99.90;;;;;;4980627;28;20158;-62
2023/05/23 05:38:37;;;;;;;22.88;12.63;;;14.70;99.90;;;;;;4979662;28;20476;-63
2023/05/23 05:41:03;;;;;;;22.83;12.90;;;14.80;99.90;;;;;;4979451;28;20513;-63
2023/05/23 05:43:34;;;;;;;16.45;10.85;;;14.90;99.90;;;;;;4987575;28;20073;-63
2023/05/23 05:46:01;;;;;;;22.45;11.23;;;15.10;99.90;;;;;;4983651;28;20492;-63
2023/05/23 05:48:27;;;;;;;18.05;11.60;;;15.20;99.90;;;;;;4980166;28;20073;-63
2023/05/23 05:50:56;;;;;;;28.27;13.52;;;15.40;99.90;;;;;;4980236;28;20386;-63
2023/05/23 05:53:22;;;;;;;30.67;12.82;;;15.40;99.90;;;;;;4997663;28;20033;-63
2023/05/23 05:55:48;;;;;;;30.17;14.25;;;15.60;99.90;;;;;;4980328;28;20054;-63
2023/05/23 05:58:14;;;;;;;27.63;13.57;;;15.80;99.90;;;;;;4979790;28;20034;-62
2023/05/23 06:00:55;;;;;;;17.63;11.23;;;15.90;99.90;;;;;;4979914;28;20038;-63
2023/05/23 06:03:22;;;;;;;31.33;14.00;;;16.20;99.90;;;;;;4979985;28;20555;-63
2023/05/23 06:05:53;;;;;;;23.55;11.02;;;16.30;99.90;;;;;;4979884;28;20427;-63
2023/05/23 06:08:20;;;;;;;16.90;10.13;;;16.20;99.90;;;;;;4995824;28;20034;-63
2023/05/23 06:10:46;;;;;;;15.10;9.27;;;16.10;99.90;;;;;;4997071;28;20109;-63
2023/05/23 06:13:15;;;;;;;19.50;10.18;;;16.30;99.90;;;;;;4993218;28;20037;-63
2023/05/23 06:15:45;;;;;;;19.10;10.80;;;16.50;99.90;;;;;;4995848;28;20148;-63
2023/05/23 06:18:13;;;;;;;32.92;11.20;;;16.70;99.90;;;;;;4995855;28;20035;-63
2023/05/23 06:20:39;;;;;;;30.20;11.15;;;16.90;99.90;;;;;;4996158;28;20038;-63
2023/05/23 06:23:10;;;;;;;17.85;10.00;;;17.10;99.90;;;;;;4995654;28;20037;-63
2023/05/23 06:25:38;;;;;;;23.40;11.35;;;17.30;99.90;;;;;;4995491;28;20042;-63
2023/05/23 06:28:05;;;;;;;23.48;10.65;;;17.50;99.90;;;;;;4979302;28;20030;-63
2023/05/23 06:30:32;;;;;;;28.42;10.48;;;17.50;99.90;;;;;;4979457;28;20030;-63
2023/05/23 06:32:58;;;;;;;26.98;11.07;;;17.80;99.90;;;;;;4996654;28;20042;-63
2023/05/23 06:35:24;;;;;;;26.73;10.60;;;17.90;99.90;;;;;;4996283;28;20030;-64
2023/05/23 06:37:50;;;;;;;17.85;9.52;;;18.20;99.90;;;;;;4996451;28;20030;-63
2023/05/23 06:40:17;;;;;;;18.83;8.57;;;18.50;99.90;;;;;;4978863;28;20057;-63
2023/05/23 06:42:43;;;;;;;21.23;9.32;;;18.70;99.90;;;;;;4978970;28;20058;-64
2023/05/23 06:45:18;;;;;;;18.65;9.23;;;18.90;99.90;;;;;;4979242;28;20092;-63
2023/05/23 06:47:46;;;;;;;21.48;8.85;;;19.10;99.90;;;;;;4996125;28;20057;-63
2023/05/23 06:50:12;;;;;;;19.10;9.10;;;19.00;97.70;;;;;;4978740;28;20061;-63
2023/05/23 06:52:41;;;;;;;14.73;8.38;;;19.20;97.60;;;;;;4978854;28;20026;-63
2023/05/23 06:55:07;;;;;;;13.35;8.15;;;19.30;97.60;;;;;;4978841;28;20023;-63
2023/05/23 06:57:34;;;;;;;11.90;8.68;;;19.70;99.50;;;;;;4978472;28;20102;-64
2023/05/23 07:00:00;;;;;;;16.60;8.30;;;20.00;99.90;;;;;;4978829;28;20356;-63
2023/05/23 07:02:27;;;;;;;33.70;10.93;;;20.30;97.70;;;;;;4979071;28;20033;-64
2023/05/23 07:04:56;;;;;;;15.13;9.88;;;20.30;96.40;;;;;;4978699;28;20393;-64
2023/05/23 07:07:46;;;;;;;27.13;11.27;;;20.60;93.50;;;;;;4978257;28;20030;-64
2023/05/23 07:10:12;;;;;;;21.13;10.25;;;20.80;94.30;;;;;;4977875;28;20395;-63
2023/05/23 07:12:39;;;;;;;24.15;11.82;;;21.20;93.80;;;;;;4978772;28;20102;-64
2023/05/23 07:15:06;;;;;;;28.83;10.77;;;21.50;92.90;;;;;;4978567;28;20379;-63
2023/05/23 07:17:37;;;;;;;19.92;9.93;;;21.70;91.60;;;;;;4978530;28;20488;-64
2023/05/23 07:20:03;;;;;;;23.17;10.70;;;22.10;91.00;;;;;;4978442;28;20038;-64
2023/05/23 07:22:31;;;;;;;17.67;8.90;;;22.50;88.40;;;;;;4978698;28;20061;-64
2023/05/23 07:24:57;;;;;;;16.75;8.60;;;22.80;89.70;;;;;;4979162;28;20460;-64
2023/05/23 07:27:28;;;;;;;17.10;8.55;;;23.00;87.00;;;;;;4978914;28;20084;-64
2023/05/23 07:29:56;;;;;;;24.25;9.60;;;23.20;86.20;;;;;;4978195;28;20088;-64
2023/05/23 07:32:22;;;;;;;20.02;8.20;;;23.50;82.30;;;;;;4978269;28;20084;-64
2023/05/23 07:34:49;;;;;;;16.77;8.32;;;23.70;79.30;;;;;;4978170;28;20593;-64
2023/05/23 07:37:15;;;;;;;14.13;7.55;;;24.10;78.60;;;;;;4978046;28;20117;-64
2023/05/23 07:39:43;;;;;;;17.23;8.15;;;24.50;77.10;;;;;;4995586;28;20189;-64
2023/05/23 07:42:09;;;;;;;17.40;7.93;;;24.60;73.30;;;;;;4978040;28;20135;-64
2023/05/23 07:44:37;;;;;;;20.42;8.20;;;24.70;73.00;;;;;;4978062;28;20274;-64
2023/05/23 07:47:04;;;;;;;9.23;6.43;;;24.90;72.00;;;;;;4977821;28;20035;-64
2023/05/23 07:49:30;;;;;;;11.95;6.53;;;25.00;71.60;;;;;;4977927;28;20034;-64
2023/05/23 07:51:56;;;;;;;14.40;6.18;;;25.20;71.20;;;;;;4978169;28;20420;-64
2023/05/23 07:54:22;;;;;;;10.75;6.00;;;25.30;68.70;;;;;;4988446;28;20027;-64
2023/05/23 07:56:53;;;;;;;12.75;6.45;;;25.40;65.80;;;;;;4994173;28;20026;-64
2023/05/23 07:59:19;;;;;;;19.05;7.18;;;25.20;67.30;;;;;;4994292;28;20487;-64
2023/05/23 08:01:49;;;;;;;19.85;7.25;;;25.50;66.40;;;;;;4993913;28;20038;-64
2023/05/23 08:04:18;;;;;;;11.25;6.13;;;25.60;67.80;;;;;;4993675;28;20813;-64
2023/05/23 08:06:52;;;;;;;17.42;6.75;;;26.00;66.60;;;;;;4995145;28;20053;-64
2023/05/23 08:09:24;;;;;;;17.10;6.20;;;26.00;63.60;;;;;;4994739;28;20034;-64
2023/05/23 08:11:53;;;;;;;15.98;6.97;;;25.90;61.50;;;;;;4993713;28;20058;-64
2023/05/23 08:14:21;;;;;;;12.38;6.47;;;26.60;61.70;;;;;;4993772;28;20037;-64
2023/05/23 08:16:56;;;;;;;8.85;6.50;;;27.00;59.80;;;;;;4993771;28;20037;-65
2023/05/23 08:19:25;;;;;;;10.90;6.13;;;27.20;59.80;;;;;;4993791;28;20514;-65
2023/05/23 08:21:52;;;;;;;10.82;5.95;;;27.20;59.70;;;;;;4993510;28;20035;-64
2023/05/23 08:24:19;;;;;;;10.05;6.00;;;26.30;58.20;;;;;;4993858;28;20040;-64
2023/05/23 08:26:45;;;;;;;15.07;6.80;;;25.80;58.70;;;;;;4987849;28;20104;-65
2023/05/23 08:29:13;;;;;;;11.32;5.95;;;25.70;60.60;;;;;;4977425;28;20065;-64
2023/05/23 08:31:40;;;;;;;13.65;5.95;;;26.30;57.40;;;;;;4990834;28;20053;-64
2023/05/23 08:34:07;;;;;;;19.88;6.57;;;26.60;58.10;;;;;;4993428;28;20038;-64
2023/05/23 08:36:38;;;;;;;8.27;5.25;;;27.20;56.10;;;;;;4993424;28;20038;-64
2023/05/23 08:39:06;;;;;;;11.02;6.43;;;26.90;56.00;;;;;;4993644;28;20042;-64
2023/05/23 08:41:36;;;;;;;17.02;6.78;;;27.70;56.20;;;;;;4993451;28;20030;-64
2023/05/23 08:44:06;;;;;;;11.38;5.80;;;27.60;54.00;;;;;;4993070;28;20555;-63
2023/05/23 08:46:43;;;;;;;13.45;5.53;;;28.10;55.30;;;;;;4981392;28;20069;-64
2023/05/23 08:49:10;;;;;;;12.38;5.65;;;28.40;52.70;;;;;;4993429;28;20041;-64
2023/05/23 08:51:42;;;;;;;20.23;6.85;;;28.80;52.20;;;;;;4993242;28;20474;-64
2023/05/23 08:54:13;;;;;;;14.18;6.20;;;28.00;53.50;;;;;;4993058;28;20030;-64
2023/05/23 08:56:40;;;;;;;11.85;6.15;;;28.40;51.40;;;;;;4994881;28;20100;-64
2023/05/23 08:59:11;;;;;;;35.28;8.65;;;28.60;51.00;;;;;;4992834;28;20031;-64
2023/05/23 09:01:40;;;;;;;17.48;6.88;;;28.90;51.50;;;;;;4992851;28;20034;-64
2023/05/23 09:04:11;;;;;;;8.68;5.18;;;28.90;51.70;;;;;;4993438;28;20185;-64
2023/05/23 09:07:06;;;;;;;8.23;4.97;;;29.30;50.20;;;;;;4989835;28;20034;-64
2023/05/23 09:09:33;;;;;;;6.72;4.72;;;29.70;50.00;;;;;;4992893;28;20023;-64
2023/05/23 09:12:02;;;;;;;12.80;5.22;;;29.80;50.90;;;;;;4993252;28;20058;-64
2023/05/23 09:14:31;;;;;;;10.48;5.10;;;30.20;53.40;;;;;;4993221;28;20038;-64
2023/05/23 09:17:02;;;;;;;8.20;5.03;;;30.40;48.40;;;;;;4994543;28;20060;-64
2023/05/23 09:19:28;;;;;;;16.65;6.22;;;30.10;46.00;;;;;;4993071;28;20476;-64
2023/05/23 09:22:02;;;;;;;13.00;5.78;;;30.50;50.10;;;;;;4992972;28;20430;-64
2023/05/23 09:24:35;;;;;;;13.32;5.45;;;29.90;49.10;;;;;;4993194;28;20109;-64
2023/05/23 09:27:05;;;;;;;20.80;5.90;;;30.30;48.00;;;;;;4984741;28;20499;-64
2023/05/23 09:29:32;;;;;;;9.68;5.00;;;30.00;47.60;;;;;;4976699;28;20031;-64
2023/05/23 09:32:12;;;;;;;19.00;5.50;;;30.10;50.00;;;;;;4994484;28;20105;-64
2023/05/23 09:34:59;;;;;;;11.63;5.97;;;30.40;46.70;;;;;;4996570;28;20030;-64
2023/05/23 09:37:45;;;;;;;10.25;5.25;;;30.40;47.40;;;;;;4996383;28;20022;-64
2023/05/23 09:40:13;;;;;;;8.55;5.07;;;30.70;47.30;;;;;;4996581;28;20030;-64
2023/05/23 09:42:47;;;;;;;13.38;5.05;;;29.60;45.00;;;;;;4996479;28;20380;-64
2023/05/23 09:45:15;;;;;;;5.72;4.20;;;29.60;46.60;;;;;;4990226;28;20030;-64
2023/05/23 09:47:53;;;;;;;11.52;5.43;;;29.40;47.00;;;;;;4980209;28;20093;-64
2023/05/23 09:50:20;;;;;;;5.47;4.22;;;30.30;48.30;;;;;;4980185;28;20500;-64
2023/05/23 09:52:46;;;;;;;8.95;5.18;;;30.50;46.20;;;;;;4980206;28;20033;-64
2023/05/23 09:55:13;;;;;;;13.82;6.38;;;30.10;45.00;;;;;;4979850;28;20038;-65
2023/05/23 09:57:44;;;;;;;10.32;5.60;;;29.80;47.80;;;;;;4997595;28;20610;-65
2023/05/23 10:00:12;;;;;;;10.50;4.97;;;30.10;47.50;;;;;;4997568;28;20100;-65
2023/05/23 10:03:01;;;;;;;7.95;4.75;;;30.20;46.80;;;;;;4997705;28;20026;-64
2023/05/23 10:05:33;;;;;;;8.88;4.85;;;30.20;46.90;;;;;;4997553;28;20488;-64
2023/05/23 10:08:09;;;;;;;5.30;4.47;;;30.40;48.20;;;;;;4997362;28;20026;-64
2023/05/23 10:10:55;;;;;;;6.45;4.35;;;30.30;46.20;;;;;;4996988;28;20038;-64
2023/05/23 10:13:28;;;;;;;18.83;7.15;;;29.70;45.40;;;;;;4997100;28;20026;-65
2023/05/23 10:16:07;;;;;;;11.02;5.13;;;29.50;46.40;;;;;;4997695;28;20041;-65
2023/05/23 10:18:43;;;;;;;23.10;5.78;;;29.20;47.60;;;;;;4997204;28;20030;-65
2023/05/23 10:21:14;;;;;;;9.98;4.65;;;28.70;44.40;;;;;;4997052;28;20038;-64
2023/05/23 10:23:41;;;;;;;7.68;4.55;;;28.80;49.60;;;;;;4996966;28;20041;-64
2023/05/23 10:26:08;;;;;;;10.23;4.03;;;29.20;47.00;;;;;;4997069;28;20117;-64
2023/05/23 10:28:34;;;;;;;10.85;4.13;;;29.70;45.00;;;;;;4996813;28;20527;-64
2023/05/23 10:31:01;;;;;;;9.95;4.20;;;30.10;46.10;;;;;;4996866;28;20029;-64
2023/05/23 10:33:33;;;;;;;20.05;6.05;;;30.50;46.10;;;;;;4996951;28;20077;-64
2023/05/23 10:36:39;;;;;;;10.32;3.55;;;29.60;43.60;;;;;;4996925;28;20049;-64
2023/05/23 10:39:15;;;;;;;6.30;3.80;;;28.60;43.30;;;;;;4967222;28;20034;-64
2023/05/23 10:41:47;;;;;;;7.38;3.60;;;29.50;45.10;;;;;;4996816;28;20080;-64
2023/05/23 10:44:30;;;;;;;9.52;4.53;;;29.40;41.40;;;;;;4956895;28;20039;-64
2023/05/23 10:47:00;;;;;;;6.88;3.33;;;29.80;46.90;;;;;;4956614;29;20032;-64
2023/05/23 10:49:53;;;;;;;10.15;4.05;;;30.90;44.30;;;;;;4958060;29;20034;-64
2023/05/23 10:52:25;;;;;;;8.90;4.28;;;30.70;39.70;;;;;;4957885;29;20039;-64
2023/05/23 10:54:52;;;;;;;7.35;4.32;;;30.50;42.30;;;;;;4957989;28;20426;-64
2023/05/23 10:57:20;;;;;;;5.78;3.50;;;30.20;43.70;;;;;;4957811;28;20027;-64
2023/05/23 10:59:49;;;;;;;3.95;2.70;;;30.10;38.50;;;;;;4957803;28;20042;-64
2023/05/23 11:02:18;;;;;;;8.88;3.42;;;30.50;37.70;;;;;;4957877;28;20035;-64
2023/05/23 11:04:44;;;;;;;19.55;4.88;;;31.30;35.40;;;;;;4957834;28;20042;-64
2023/05/23 11:07:30;;;;;;;6.10;3.50;;;31.00;39.50;;;;;;4957736;28;20035;-64
2023/05/23 11:10:10;;;;;;;9.55;3.80;;;31.90;40.40;;;;;;4957513;28;20122;-64
2023/05/23 11:12:43;;;;;;;16.08;5.10;;;32.10;41.40;;;;;;4958091;28;20058;-64
2023/05/23 11:15:19;;;;;;;16.13;7.40;;;31.50;44.30;;;;;;4957309;28;20030;-64
2023/05/23 11:17:51;;;;;;;19.95;8.32;;;32.20;44.50;;;;;;4957552;28;20384;-64
2023/05/23 11:20:23;;;;;;;12.15;5.60;;;32.40;43.80;;;;;;4957931;28;20031;-64
2023/05/23 11:23:02;;;;;;;13.90;4.93;;;32.50;44.30;;;;;;4957292;28;20518;-64
2023/05/23 11:25:42;;;;;;;13.82;6.60;;;31.40;42.20;;;;;;4957346;28;20454;-64
2023/05/23 11:28:10;;;;;;;11.98;5.32;;;31.60;43.70;;;;;;4937921;29;20126;-64
2023/05/23 11:30:37;;;;;;;8.32;3.45;;;32.50;46.10;;;;;;4937883;29;20642;-64
2023/05/23 11:33:15;;;;;;;9.50;4.15;;;31.70;39.70;;;;;;4938080;29;20024;-64
2023/05/23 11:35:46;;;;;;;15.57;4.82;;;31.80;43.40;;;;;;4937945;29;20035;-64
2023/05/23 11:38:15;;;;;;;9.52;4.05;;;31.90;43.10;;;;;;4938009;29;20122;-64
2023/05/23 11:40:43;;;;;;;4.47;3.28;;;32.60;43.20;;;;;;4938305;29;20106;-64
2023/05/23 11:43:15;;;;;;;11.93;5.22;;;32.60;38.70;;;;;;4974043;28;20054;-64
2023/05/23 11:45:42;;;;;;;5.95;3.80;;;31.70;37.50;;;;;;4994984;28;20037;-64
2023/05/23 11:48:15;;;;;;;9.32;3.70;;;32.00;40.90;;;;;;4995271;28;20114;-64
2023/05/23 11:50:51;;;;;;;6.20;3.70;;;32.70;41.30;;;;;;4995350;28;20033;-64
2023/05/23 11:53:20;;;;;;;17.70;4.88;;;33.10;38.60;;;;;;4995496;28;20468;-64
2023/05/23 11:55:58;;;;;;;5.20;3.38;;;32.40;39.90;;;;;;4995049;28;20030;-64
2023/05/23 11:58:38;;;;;;;5.10;3.78;;;32.80;41.00;;;;;;4995329;28;20405;-64
2023/05/23 12:01:07;;;;;;;9.38;4.07;;;32.80;41.40;;;;;;4995298;28;20096;-64
2023/05/23 12:03:50;;;;;;;5.65;3.78;;;33.30;39.90;;;;;;4994959;28;20031;-64
2023/05/23 12:06:19;;;;;;;9.10;3.63;;;32.80;36.90;;;;;;4975920;28;20034;-64
2023/05/23 12:08:46;;;;;;;7.55;3.70;;;32.40;37.60;;;;;;4975009;28;20134;-65
2023/05/23 12:11:13;;;;;;;4.97;2.90;;;32.80;39.60;;;;;;4975308;28;20023;-64
2023/05/23 12:13:41;;;;;;;8.48;4.03;;;32.90;38.20;;;;;;4975675;28;20465;-64
2023/05/23 12:16:07;;;;;;;6.65;3.50;;;32.90;35.60;;;;;;4975687;28;20026;-64
2023/05/23 12:18:34;;;;;;;6.50;3.22;;;32.60;36.20;;;;;;4975276;28;20023;-64
2023/05/23 12:21:06;;;;;;;20.08;4.15;;;32.70;36.30;;;;;;4975589;28;20022;-64
2023/05/23 12:23:34;;;;;;;15.88;5.03;;;32.20;40.50;;;;;;4975561;28;20058;-64
2023/05/23 12:26:09;;;;;;;6.75;3.80;;;32.30;40.30;;;;;;4978130;28;20030;-64
2023/05/23 12:28:41;;;;;;;7.03;3.28;;;31.80;43.40;;;;;;4994832;28;20073;-64
2023/05/23 12:31:17;;;;;;;5.53;3.58;;;31.70;38.40;;;;;;4994780;28;20038;-64
2023/05/23 12:33:46;;;;;;;29.90;5.70;;;31.60;39.40;;;;;;4994574;28;20105;-64
2023/05/23 12:36:33;;;;;;;15.18;4.43;;;31.50;39.80;;;;;;4994917;28;20479;-64
2023/05/23 12:39:04;;;;;;;9.82;4.00;;;31.60;40.90;;;;;;4994403;28;20030;-64
2023/05/23 12:41:32;;;;;;;8.45;3.95;;;31.70;38.40;;;;;;4994728;28;20030;-65
2023/05/23 12:44:02;;;;;;;6.88;4.00;;;29.90;39.30;;;;;;4994918;28;20058;-65
2023/05/23 12:46:28;;;;;;;11.02;4.05;;;30.10;41.40;;;;;;4975632;28;20226;-65
2023/05/23 12:48:54;;;;;;;6.22;3.70;;;30.80;40.20;;;;;;4975212;28;20045;-65